Time;durP1;ratioP1;P1;durP2;ratioP2;P2;SDS_P1;SDS_P2;PMS_P1;PMS_P2;Temp;Humidity;BMP_temperature;BMP_pressure;BME280_temperature;BME280_humidity;BME280_pressure;Samples;Min_cycle;Max_cycle;Signal;HPM_P1;HPM_P2
2023/12/30 00:00:50;;;;;;;10.13;1.80;;;;;;;-145.18;100.00;46898.72;5081992;28;20039;-73
2023/12/30 00:03:16;;;;;;;13.70;1.33;;;;;;;-145.18;100.00;46892.84;5090088;28;20033;-72
2023/12/30 00:05:42;;;;;;;8.37;1.00;;;;;;;-145.18;100.00;46898.72;5083262;28;20437;-73
2023/12/30 00:08:07;;;;;;;15.07;2.03;;;;;;;-145.18;100.00;46896.75;5091544;28;20032;-73
2023/12/30 00:10:32;;;;;;;8.40;1.87;;;;;;;-145.18;100.00;46902.63;5056270;28;20090;-72
2023/12/30 00:12:58;;;;;;;8.47;1.40;;;;;;;-145.18;100.00;46898.72;5085839;28;20484;-72
2023/12/30 00:15:24;;;;;;;13.47;2.17;;;;;;;-145.18;100.00;46902.63;5091665;28;20101;-73
2023/12/30 00:17:49;;;;;;;13.27;1.97;;;;;;;-145.18;100.00;46900.66;5089951;28;20748;-72
2023/12/30 00:20:15;;;;;;;15.53;1.30;;;;;;;-145.18;100.00;46910.44;5088835;28;20103;-72
2023/12/30 00:22:40;;;;;;;7.73;1.07;;;;;;;-145.18;100.00;46914.34;5086483;28;20107;-72
2023/12/30 00:25:07;;;;;;;9.43;1.87;;;;;;;-145.18;100.00;46918.25;5090586;28;20107;-72
2023/12/30 00:27:32;;;;;;;13.83;1.33;;;;;;;-145.18;100.00;46918.25;5084840;28;20040;-72
2023/12/30 00:29:58;;;;;;;6.50;1.13;;;;;;;-145.18;100.00;46922.16;5080521;28;20272;-72
2023/12/30 00:32:23;;;;;;;4.90;1.03;;;;;;;-145.18;100.00;46929.97;5082158;28;20040;-72
2023/12/30 00:34:49;;;;;;;11.67;2.00;;;;;;;-145.18;100.00;46928.00;5087607;28;20067;-72
2023/12/30 00:37:18;;;;;;;11.77;1.60;;;;;;;-145.18;100.00;46933.88;5090567;28;20565;-72
2023/12/30 00:39:44;;;;;;;11.77;1.50;;;;;;;-145.18;100.00;46928.00;5081521;28;20284;-72
2023/12/30 00:42:09;;;;;;;10.70;1.60;;;;;;;-145.18;100.00;46929.97;5080121;28;20620;-72
2023/12/30 00:44:35;;;;;;;16.57;1.93;;;;;;;-145.18;100.00;46926.06;5092384;28;20077;-72
2023/12/30 00:47:00;;;;;;;10.60;2.13;;;;;;;-145.18;100.00;46929.97;5047288;28;20499;-72
2023/12/30 00:49:26;;;;;;;9.33;1.53;;;;;;;-145.18;100.00;46931.91;5078695;28;20024;-72
2023/12/30 00:51:51;;;;;;;15.97;1.13;;;;;;;-145.18;100.00;46931.91;5088269;28;20446;-75
2023/12/30 00:54:16;;;;;;;7.23;1.10;;;;;;;-145.18;100.00;46931.91;5085543;28;20036;-73
2023/12/30 00:56:42;;;;;;;13.13;1.63;;;;;;;-145.18;100.00;46933.88;5087925;28;20492;-73
2023/12/30 00:59:07;;;;;;;9.90;1.70;;;;;;;-145.18;100.00;46935.81;5089436;28;20380;-73
2023/12/30 01:01:33;;;;;;;8.17;1.53;;;;;;;-145.18;100.00;46935.81;5085722;28;20083;-73
2023/12/30 01:03:59;;;;;;;10.13;1.00;;;;;;;-145.18;100.00;46935.81;5089853;28;20399;-73
2023/12/30 01:06:24;;;;;;;9.87;1.47;;;;;;;-145.18;100.00;46935.81;5085643;28;20043;-73
2023/12/30 01:08:50;;;;;;;6.93;1.10;;;;;;;-145.18;100.00;46928.00;5088666;28;20260;-73
2023/12/30 01:11:15;;;;;;;11.47;1.30;;;;;;;-145.18;100.00;46929.97;5091964;28;20485;-72
2023/12/30 01:13:40;;;;;;;10.87;1.27;;;;;;;-145.18;100.00;46929.97;5091742;28;20043;-73
2023/12/30 01:16:06;;;;;;;12.63;1.27;;;;;;;-145.18;100.00;46931.91;5092088;28;20035;-72
2023/12/30 01:18:32;;;;;;;11.43;1.30;;;;;;;-145.18;100.00;46929.97;5086316;28;20431;-72
2023/12/30 01:20:57;;;;;;;15.07;1.30;;;;;;;-145.18;100.00;46931.91;5092239;28;20035;-72
2023/12/30 01:23:23;;;;;;;18.23;1.67;;;;;;;-145.18;100.00;46933.88;5090390;28;20514;-72
2023/12/30 01:25:48;;;;;;;10.73;1.10;;;;;;;-145.18;100.00;46931.91;5092933;28;20027;-72
2023/12/30 01:28:14;;;;;;;13.23;1.30;;;;;;;-145.18;100.00;46933.88;5088698;28;20124;-72
2023/12/30 01:30:40;;;;;;;6.30;0.93;;;;;;;-145.18;100.00;46933.88;5092841;28;20028;-72
2023/12/30 01:33:05;;;;;;;8.70;1.13;;;;;;;-145.18;100.00;46937.78;5091273;28;20035;-72
2023/12/30 01:35:32;;;;;;;7.43;0.97;;;;;;;-145.18;100.00;46937.78;5085814;28;20289;-72
2023/12/30 01:37:57;;;;;;;8.23;1.10;;;;;;;-145.18;100.00;46937.78;5091670;28;20024;-72
2023/12/30 01:40:26;;;;;;;10.07;1.17;;;;;;;-145.18;100.00;46939.72;5091703;28;20309;-72
2023/12/30 01:42:51;;;;;;;11.37;1.00;;;;;;;-145.18;100.00;46943.63;5080768;28;20028;-72
2023/12/30 01:45:16;;;;;;;7.10;1.03;;;;;;;-145.18;100.00;46943.63;5092694;28;20253;-72
2023/12/30 01:47:42;;;;;;;5.90;1.10;;;;;;;-145.18;100.00;46937.78;5087067;28;20480;-72
2023/12/30 01:50:09;;;;;;;9.67;1.17;;;;;;;-145.18;100.00;46939.72;5084089;28;20032;-72
2023/12/30 01:52:35;;;;;;;19.30;1.30;;;;;;;-145.18;100.00;46937.78;5087444;28;20546;-72
2023/12/30 01:55:02;;;;;;;12.13;1.43;;;;;;;-145.18;100.00;46933.88;5084436;28;20338;-72
2023/12/30 01:57:28;;;;;;;6.67;1.27;;;;;;;-145.18;100.00;46939.72;5092232;28;20264;-72
2023/12/30 01:59:54;;;;;;;11.50;1.50;;;;;;;-145.18;100.00;46931.91;5083790;28;20273;-72
2023/12/30 02:02:21;;;;;;;13.77;1.07;;;;;;;-145.18;100.00;46931.91;5080623;28;20484;-72
2023/12/30 02:04:47;;;;;;;13.27;1.77;;;;;;;-145.18;100.00;46933.88;5083213;28;20048;-72
2023/12/30 02:07:12;;;;;;;8.50;1.13;;;;;;;-145.18;100.00;46924.09;5086132;28;20357;-72
2023/12/30 02:09:38;;;;;;;12.00;1.67;;;;;;;-145.18;100.00;46928.00;5081783;28;20756;-72
2023/12/30 02:12:04;;;;;;;6.23;1.30;;;;;;;-145.18;100.00;46929.97;5088527;28;20539;-72
2023/12/30 02:14:30;;;;;;;10.47;1.40;;;;;;;-145.18;100.00;46926.06;5092107;28;20042;-72
2023/12/30 02:16:56;;;;;;;13.20;1.40;;;;;;;-145.18;100.00;46928.00;5086700;28;20277;-72
2023/12/30 02:19:22;;;;;;;14.27;1.73;;;;;;;-145.18;100.00;46931.91;5092069;28;20394;-72
2023/12/30 02:21:48;;;;;;;13.37;2.60;;;;;;;-145.18;100.00;46924.09;5091543;28;20312;-72
2023/12/30 02:24:14;;;;;;;12.53;1.83;;;;;;;-145.18;100.00;46924.09;5090483;28;20376;-72
2023/12/30 02:26:39;;;;;;;9.83;1.40;;;;;;;-145.18;100.00;46929.97;5086986;28;20276;-72
2023/12/30 02:29:08;;;;;;;12.50;2.63;;;;;;;-145.18;100.00;46933.88;5087345;28;20036;-72
2023/12/30 02:31:45;;;;;;;16.03;1.57;;;;;;;-145.18;100.00;46937.78;5082211;28;20046;-71
2023/12/30 02:34:17;;;;;;;17.20;2.53;;;;;;;-145.18;100.00;46937.78;5090686;28;20288;-72
2023/12/30 02:36:47;;;;;;;9.10;1.20;;;;;;;-145.18;100.00;46937.78;5067723;28;20430;-72
2023/12/30 02:39:12;;;;;;;11.73;1.57;;;;;;;-145.18;100.00;46937.78;5086999;28;20672;-72
2023/12/30 02:41:38;;;;;;;6.63;1.50;;;;;;;-145.18;100.00;46939.72;5087564;28;20260;-72
2023/12/30 02:44:04;;;;;;;11.60;1.80;;;;;;;-145.18;100.00;46935.81;5082668;28;20024;-72
2023/12/30 02:46:30;;;;;;;12.37;1.77;;;;;;;-145.18;100.00;46939.72;5085326;28;20468;-71
2023/12/30 02:48:57;;;;;;;13.67;1.40;;;;;;;-145.18;100.00;46939.72;5091515;28;20062;-71
2023/12/30 02:51:22;;;;;;;13.43;1.30;;;;;;;-145.18;100.00;46939.72;5078066;28;20479;-72
2023/12/30 02:53:48;;;;;;;10.47;1.37;;;;;;;-145.18;100.00;46937.78;5088207;28;20284;-72
2023/12/30 02:56:24;;;;;;;15.10;1.73;;;;;;;-145.18;100.00;46935.81;5085100;28;20032;-72
2023/12/30 02:58:57;;;;;;;10.47;1.60;;;;;;;-145.18;100.00;46939.72;5091618;28;20048;-72
2023/12/30 03:01:28;;;;;;;10.77;1.93;;;;;;;-145.18;100.00;46943.63;5085669;28;20276;-72
2023/12/30 03:03:55;;;;;;;14.17;1.50;;;;;;;-145.18;100.00;46941.69;5082371;28;20289;-72
2023/12/30 03:06:21;;;;;;;12.70;1.37;;;;;;;-145.18;100.00;46945.59;5083204;28;20276;-72
2023/12/30 03:08:47;;;;;;;14.23;2.27;;;;;;;-145.18;100.00;46945.59;5088932;28;20272;-71
2023/12/30 03:11:13;;;;;;;9.13;1.30;;;;;;;-145.18;100.00;46947.53;5090883;28;20318;-72
2023/12/30 03:13:38;;;;;;;11.40;1.57;;;;;;;-145.18;100.00;46953.41;5091792;28;20284;-71
2023/12/30 03:16:04;;;;;;;9.60;2.47;;;;;;;-145.18;100.00;46953.41;5086955;28;20098;-72
2023/12/30 03:18:30;;;;;;;10.63;1.17;;;;;;;-145.18;100.00;46955.34;5086950;28;20028;-72
2023/12/30 03:20:56;;;;;;;10.77;1.43;;;;;;;-145.18;100.00;46951.44;5081133;28;20248;-72
2023/12/30 03:23:21;;;;;;;16.53;2.20;;;;;;;-145.18;100.00;46957.31;5088664;28;20032;-71
2023/12/30 03:25:46;;;;;;;14.00;2.30;;;;;;;-145.18;100.00;46957.31;5080681;28;20160;-72
2023/12/30 03:28:12;;;;;;;8.20;1.97;;;;;;;-145.18;100.00;46959.25;5086167;28;20089;-72
2023/12/30 03:30:37;;;;;;;12.93;1.67;;;;;;;-145.18;100.00;46963.19;5083064;28;20643;-72
2023/12/30 03:33:03;;;;;;;17.93;2.30;;;;;;;-145.18;100.00;46957.31;5095321;28;20108;-72
2023/12/30 03:35:28;;;;;;;11.07;1.47;;;;;;;-145.18;100.00;46961.22;5075927;28;20380;-72
2023/12/30 03:37:53;;;;;;;18.83;2.20;;;;;;;-145.18;100.00;46959.25;5088452;28;20074;-71
2023/12/30 03:40:19;;;;;;;11.10;1.90;;;;;;;-145.18;100.00;46959.25;5094166;28;20127;-72
2023/12/30 03:42:45;;;;;;;15.23;1.70;;;;;;;-145.18;100.00;46953.41;5087928;28;20028;-72
2023/12/30 03:45:10;;;;;;;11.00;1.60;;;;;;;-145.18;100.00;46953.41;5094521;28;20535;-72
2023/12/30 03:47:35;;;;;;;13.47;1.60;;;;;;;-145.18;100.00;46957.31;5090442;28;20044;-72
2023/12/30 03:50:01;;;;;;;8.70;1.17;;;;;;;-145.18;100.00;46957.31;5089885;28;20130;-71
2023/12/30 03:52:29;;;;;;;5.87;1.03;;;;;;;-145.18;100.00;46953.41;5089690;28;20073;-73
2023/12/30 03:54:55;;;;;;;13.10;1.67;;;;;;;-145.18;100.00;46953.41;5083151;28;20022;-73
2023/12/30 03:57:21;;;;;;;7.67;1.83;;;;;;;-145.18;100.00;46951.44;5089369;28;20288;-72
2023/12/30 03:59:46;;;;;;;17.07;1.97;;;;;;;-145.18;100.00;46951.44;5090886;28;20624;-72
2023/12/30 04:02:12;;;;;;;20.30;2.87;;;;;;;-145.18;100.00;46953.41;5079174;28;20546;-72
2023/12/30 04:04:38;;;;;;;11.93;1.60;;;;;;;-145.18;100.00;46953.41;5074859;28;20032;-72
2023/12/30 04:07:03;;;;;;;19.87;1.77;;;;;;;-145.18;100.00;46953.41;5077324;28;20032;-72
2023/12/30 04:09:29;;;;;;;21.60;2.67;;;;;;;-145.18;100.00;46953.41;5084598;28;20028;-72
2023/12/30 04:11:54;;;;;;;11.90;1.73;;;;;;;-145.18;100.00;46953.41;5057181;28;20090;-72
2023/12/30 04:14:20;;;;;;;12.10;1.70;;;;;;;-145.18;100.00;46955.34;5078124;28;20135;-72
2023/12/30 04:16:45;;;;;;;16.07;1.70;;;;;;;-145.18;100.00;46961.22;5087847;28;20035;-72
2023/12/30 04:19:11;;;;;;;16.83;2.90;;;;;;;-145.18;100.00;46957.31;5075224;28;20028;-71
2023/12/30 04:21:36;;;;;;;16.53;2.40;;;;;;;-145.18;100.00;46957.31;5084562;28;20067;-72
2023/12/30 04:24:01;;;;;;;14.93;1.60;;;;;;;-145.18;100.00;46959.25;5083137;28;20107;-72
2023/12/30 04:26:27;;;;;;;12.97;2.30;;;;;;;-145.18;100.00;46963.19;5093817;28;20032;-72
2023/12/30 04:28:52;;;;;;;16.07;2.30;;;;;;;-145.18;100.00;46963.19;5091937;28;20101;-71
2023/12/30 04:31:17;;;;;;;20.17;3.07;;;;;;;-145.18;100.00;46961.22;5092027;28;20031;-73
2023/12/30 04:33:43;;;;;;;15.03;1.87;;;;;;;-145.18;100.00;46961.22;5091586;28;20507;-72
2023/12/30 04:36:08;;;;;;;17.60;2.73;;;;;;;-145.18;100.00;46965.13;5091678;28;20052;-72
2023/12/30 04:38:34;;;;;;;15.53;1.90;;;;;;;-145.18;100.00;46963.19;5072929;28;20025;-72
2023/12/30 04:41:02;;;;;;;14.90;1.80;;;;;;;-145.18;100.00;46961.22;5082493;28;20058;-72
2023/12/30 04:43:27;;;;;;;13.20;1.83;;;;;;;-145.18;100.00;46963.19;5082142;28;20034;-72
2023/12/30 04:45:53;;;;;;;8.97;1.60;;;;;;;-145.18;100.00;46963.19;5085261;28;20351;-72
2023/12/30 04:48:18;;;;;;;11.73;1.80;;;;;;;-145.18;100.00;46957.31;5085431;28;20499;-72
2023/12/30 04:50:44;;;;;;;22.20;2.43;;;;;;;-145.18;100.00;46961.22;5093599;28;20032;-72
2023/12/30 04:53:09;;;;;;;11.27;1.53;;;;;;;-145.18;100.00;46957.31;5085888;28;20040;-72
2023/12/30 04:55:36;;;;;;;8.37;1.40;;;;;;;-145.18;100.00;46955.34;5082395;28;20674;-72
2023/12/30 04:58:01;;;;;;;12.90;2.43;;;;;;;-145.18;100.00;46955.34;5086030;28;20029;-72
2023/12/30 05:00:27;;;;;;;14.47;2.53;;;;;;;-145.18;100.00;46957.31;5079143;28;20277;-72
2023/12/30 05:02:52;;;;;;;9.97;1.60;;;;;;;-145.18;100.00;46959.25;5086854;28;20036;-72
2023/12/30 05:05:17;;;;;;;8.30;1.50;;;;;;;-145.18;100.00;46957.31;5084601;28;20032;-72
2023/12/30 05:07:43;;;;;;;12.00;1.37;;;;;;;-145.18;100.00;46957.31;5088316;28;20122;-72
2023/12/30 05:10:09;;;;;;;13.70;1.80;;;;;;;-145.18;100.00;46957.31;5092960;28;20068;-72
2023/12/30 05:12:35;;;;;;;13.77;2.00;;;;;;;-145.18;100.00;46957.31;5091909;28;20028;-72
2023/12/30 05:15:00;;;;;;;10.73;1.93;;;;;;;-145.18;100.00;46955.34;5091607;28;20287;-72
2023/12/30 05:17:26;;;;;;;13.30;1.80;;;;;;;-145.18;100.00;46957.31;5072300;28;20024;-72
2023/12/30 05:19:51;;;;;;;11.83;1.53;;;;;;;-145.18;100.00;46955.34;5082848;28;20028;-72
2023/12/30 05:22:16;;;;;;;9.77;2.20;;;;;;;-145.18;100.00;46955.34;5092301;28;20020;-72
2023/12/30 05:24:42;;;;;;;18.13;2.57;;;;;;;-145.18;100.00;46953.41;5092844;28;20403;-72
2023/12/30 05:27:07;;;;;;;12.00;2.13;;;;;;;-145.18;100.00;46957.31;5082912;28;20373;-72
2023/12/30 05:29:33;;;;;;;15.27;2.00;;;;;;;-145.18;100.00;46955.34;5091560;28;20060;-72
2023/12/30 05:31:58;;;;;;;13.87;1.60;;;;;;;-145.18;100.00;46961.22;5091281;28;20479;-72
2023/12/30 05:34:24;;;;;;;20.00;2.30;;;;;;;-145.18;100.00;46965.13;5088788;28;20119;-72
2023/12/30 05:36:49;;;;;;;13.67;2.10;;;;;;;-145.18;100.00;46961.22;5091022;28;20044;-72
2023/12/30 05:39:14;;;;;;;21.97;2.03;;;;;;;-145.18;100.00;46965.13;5092515;28;20039;-72
2023/12/30 05:41:40;;;;;;;24.87;3.00;;;;;;;-145.18;100.00;46967.09;5092599;28;20090;-72
2023/12/30 05:44:06;;;;;;;14.00;1.73;;;;;;;-145.18;100.00;46972.94;5078544;28;20043;-72
2023/12/30 05:46:31;;;;;;;26.57;3.27;;;;;;;-145.18;100.00;46969.03;5078425;28;20036;-73
2023/12/30 05:48:57;;;;;;;11.50;2.03;;;;;;;-145.18;100.00;46980.75;5092530;28;20043;-72
2023/12/30 05:51:22;;;;;;;13.97;1.93;;;;;;;-145.18;100.00;46974.91;5091518;28;20058;-72
2023/12/30 05:53:47;;;;;;;16.87;2.10;;;;;;;-145.18;100.00;46974.91;5090817;28;20043;-72
2023/12/30 05:56:21;;;;;;;18.10;1.77;;;;;;;-145.18;100.00;46980.75;5085177;28;20047;-72
2023/12/30 05:58:46;;;;;;;12.87;2.30;;;;;;;-145.18;100.00;46980.75;5078248;28;20024;-72
2023/12/30 06:01:11;;;;;;;14.80;2.13;;;;;;;-145.18;100.00;46980.75;5090512;28;20314;-72
2023/12/30 06:03:37;;;;;;;16.00;2.03;;;;;;;-145.18;100.00;46974.91;5079634;28;20036;-72
2023/12/30 06:06:03;;;;;;;14.77;2.00;;;;;;;-145.18;100.00;46980.75;5086186;28;20459;-72
2023/12/30 06:08:28;;;;;;;8.60;1.90;;;;;;;-145.18;100.00;46976.84;5081251;28;20040;-72
2023/12/30 06:10:54;;;;;;;19.67;2.00;;;;;;;-145.18;100.00;46980.75;5085508;28;20271;-73
2023/12/30 06:13:20;;;;;;;19.00;2.30;;;;;;;-145.18;100.00;46976.84;5079583;28;20115;-73
2023/12/30 06:15:50;;;;;;;17.57;2.20;;;;;;;-145.18;100.00;46980.75;5085860;28;20054;-72
2023/12/30 06:18:16;;;;;;;21.03;2.37;;;;;;;-145.18;100.00;46980.75;5084944;28;20024;-72
2023/12/30 06:20:45;;;;;;;21.87;2.83;;;;;;;-145.18;100.00;46982.72;5080144;28;20314;-72
2023/12/30 06:23:10;;;;;;;20.80;2.23;;;;;;;-145.18;100.00;46984.66;5085739;28;20032;-72
2023/12/30 06:25:37;;;;;;;13.57;1.93;;;;;;;-145.18;100.00;46982.72;5085140;28;20257;-72
2023/12/30 06:28:03;;;;;;;16.73;1.70;;;;;;;-145.18;100.00;46984.66;5078331;28;20017;-71
2023/12/30 06:30:28;;;;;;;18.47;2.03;;;;;;;-145.18;100.00;46992.47;5091546;28;20633;-72
2023/12/30 06:32:54;;;;;;;18.90;3.10;;;;;;;-145.18;100.00;46984.66;5084970;28;20028;-72
2023/12/30 06:35:19;;;;;;;18.63;2.10;;;;;;;-145.18;100.00;46986.63;5087853;28;20480;-72
2023/12/30 06:37:44;;;;;;;12.93;3.20;;;;;;;-145.18;100.00;46982.72;5083556;28;20099;-72
2023/12/30 06:40:10;;;;;;;11.97;1.80;;;;;;;-145.18;100.00;46988.56;5092610;28;20540;-72
2023/12/30 06:42:35;;;;;;;11.30;1.83;;;;;;;-145.18;100.00;46988.56;5083021;28;20035;-72
2023/12/30 06:45:01;;;;;;;16.53;2.27;;;;;;;-145.18;100.00;46982.72;5092116;28;20468;-72
2023/12/30 06:47:26;;;;;;;15.57;2.10;;;;;;;-145.18;100.00;46988.56;5086431;28;20047;-72
2023/12/30 06:49:52;;;;;;;15.40;2.60;;;;;;;-145.18;100.00;46986.63;5086815;28;20492;-72
2023/12/30 06:52:20;;;;;;;15.77;2.00;;;;;;;-145.18;100.00;46984.66;5085160;28;20526;-72
2023/12/30 06:54:45;;;;;;;17.53;1.87;;;;;;;-145.18;100.00;46984.66;5086469;28;20403;-71
2023/12/30 06:57:11;;;;;;;14.13;1.87;;;;;;;-145.18;100.00;46984.66;5087871;28;20277;-72
2023/12/30 06:59:36;;;;;;;16.17;2.10;;;;;;;-145.18;100.00;46984.66;5095972;28;20402;-72
2023/12/30 07:02:02;;;;;;;13.23;2.10;;;;;;;-145.18;100.00;46986.63;5087049;28;20060;-73
2023/12/30 07:04:28;;;;;;;21.93;3.80;;;;;;;-145.18;100.00;46984.66;5088061;28;20126;-72
2023/12/30 07:06:53;;;;;;;18.73;2.30;;;;;;;-145.18;100.00;46976.84;5061834;28;20472;-73
2023/12/30 07:09:19;;;;;;;9.53;1.87;;;;;;;-145.18;100.00;46986.63;5063963;28;20051;-72
2023/12/30 07:11:46;;;;;;;18.83;3.53;;;;;;;-145.18;100.00;46980.75;5095610;28;20511;-72
2023/12/30 07:14:11;;;;;;;11.73;2.07;;;;;;;-145.18;100.00;46982.72;5093144;28;21097;-72
2023/12/30 07:16:36;;;;;;;20.13;3.47;;;;;;;-145.18;100.00;46986.63;5082259;28;20281;-72
2023/12/30 07:19:02;;;;;;;16.40;2.17;;;;;;;-145.18;100.00;46982.72;5093099;28;20024;-72
2023/12/30 07:21:27;;;;;;;21.50;3.10;;;;;;;-145.18;100.00;46980.75;5085821;28;20028;-72
2023/12/30 07:23:53;;;;;;;10.47;1.87;;;;;;;-145.18;100.00;46986.63;5088650;28;20032;-72
2023/12/30 07:26:18;;;;;;;19.33;2.23;;;;;;;-145.18;100.00;46984.66;5086149;28;20031;-72
2023/12/30 07:28:43;;;;;;;19.90;2.73;;;;;;;-145.18;100.00;46982.72;5089635;28;20085;-72
2023/12/30 07:31:09;;;;;;;16.00;3.93;;;;;;;-145.18;100.00;46976.84;5090091;28;20039;-72
2023/12/30 07:33:35;;;;;;;16.37;2.83;;;;;;;-145.18;100.00;46984.66;5086290;28;20032;-73
2023/12/30 07:36:03;;;;;;;21.40;2.43;;;;;;;-145.18;100.00;46984.66;5080114;28;20040;-72
2023/12/30 07:38:30;;;;;;;17.00;2.83;;;;;;;-145.18;100.00;46984.66;5090673;28;20330;-72
2023/12/30 07:40:56;;;;;;;17.20;2.70;;;;;;;-145.18;100.00;46982.72;5080420;28;20269;-72
2023/12/30 07:43:21;;;;;;;12.67;2.73;;;;;;;-145.18;100.00;46990.53;5081559;28;20281;-72
2023/12/30 07:45:47;;;;;;;14.93;2.50;;;;;;;-145.18;100.00;46984.66;5091670;28;20349;-72
2023/12/30 07:48:12;;;;;;;18.97;2.57;;;;;;;-145.18;100.00;46986.63;5084655;28;20430;-72
2023/12/30 07:50:37;;;;;;;12.23;2.57;;;;;;;-145.18;100.00;46988.56;5087916;28;20062;-72
2023/12/30 07:53:03;;;;;;;14.30;3.27;;;;;;;-145.18;100.00;46986.63;5082978;28;20047;-72
2023/12/30 07:55:29;;;;;;;19.60;3.27;;;;;;;-145.18;100.00;46990.53;5084576;28;20407;-72
2023/12/30 07:57:54;;;;;;;16.80;2.50;;;;;;;-145.18;100.00;46990.53;5088248;28;20088;-72
2023/12/30 08:00:20;;;;;;;27.57;3.17;;;;;;;-145.18;100.00;46988.56;5080362;28;20510;-73
2023/12/30 08:02:45;;;;;;;16.27;2.60;;;;;;;-145.18;100.00;46992.47;5090589;28;20059;-72
2023/12/30 08:05:11;;;;;;;18.80;2.43;;;;;;;-145.18;100.00;46994.44;5075445;28;20032;-72
2023/12/30 08:07:36;;;;;;;22.10;3.00;;;;;;;-145.18;100.00;46998.34;5081666;28;20519;-72
2023/12/30 08:10:02;;;;;;;18.50;3.90;;;;;;;-145.18;100.00;46990.53;5078914;28;20032;-73
2023/12/30 08:12:27;;;;;;;20.00;3.07;;;;;;;-145.18;100.00;46988.56;5086244;28;20491;-72
2023/12/30 08:14:53;;;;;;;13.87;3.07;;;;;;;-145.18;100.00;46996.38;5078961;28;20021;-73
2023/12/30 08:17:18;;;;;;;22.13;3.07;;;;;;;-145.18;100.00;46990.53;5082408;28;20455;-73
2023/12/30 08:19:43;;;;;;;12.87;2.80;;;;;;;-145.18;100.00;46990.53;5080471;28;20032;-72
2023/12/30 08:22:09;;;;;;;18.80;3.20;;;;;;;-145.18;100.00;46988.56;5084297;28;20032;-73
2023/12/30 08:24:34;;;;;;;11.57;2.30;;;;;;;-145.18;100.00;46992.47;5083424;28;20028;-72
2023/12/30 08:27:00;;;;;;;18.00;4.03;;;;;;;-145.18;100.00;46988.56;5088637;28;20038;-73
2023/12/30 08:29:25;;;;;;;17.80;3.00;;;;;;;-145.18;100.00;46990.53;5082462;28;20510;-73
2023/12/30 08:31:50;;;;;;;18.57;2.77;;;;;;;-145.18;100.00;46986.63;5086210;28;20032;-73
2023/12/30 08:34:16;;;;;;;15.70;2.53;;;;;;;-145.18;100.00;46984.66;5088313;28;20119;-73
2023/12/30 08:36:44;;;;;;;18.73;2.87;;;;;;;-145.18;100.00;46984.66;5093566;28;20059;-73
2023/12/30 08:39:10;;;;;;;16.43;2.53;;;;;;;-145.18;100.00;46980.75;5092314;28;20031;-73
2023/12/30 08:41:35;;;;;;;12.40;2.03;;;;;;;-145.18;100.00;46980.75;5087162;28;20610;-73
2023/12/30 08:44:01;;;;;;;10.93;2.37;;;;;;;-145.18;100.00;46971.00;5087285;28;20040;-74
2023/12/30 08:46:27;;;;;;;26.23;2.80;;;;;;;-145.18;100.00;46974.91;5085613;28;20039;-74
2023/12/30 08:48:53;;;;;;;14.97;2.73;;;;;;;-145.18;100.00;46972.94;5081774;28;20360;-74
2023/12/30 08:51:18;;;;;;;21.87;2.80;;;;;;;-145.18;100.00;46972.94;5076077;28;20120;-74
2023/12/30 08:53:44;;;;;;;19.33;2.67;;;;;;;-145.18;100.00;46969.03;5088732;28;20408;-74
2023/12/30 08:56:09;;;;;;;15.67;2.17;;;;;;;-145.18;100.00;46967.09;5075291;28;20090;-74
2023/12/30 08:58:35;;;;;;;16.40;2.53;;;;;;;-145.18;100.00;46965.13;5075256;28;20495;-73
2023/12/30 09:01:00;;;;;;;11.63;2.20;;;;;;;-145.18;100.00;46963.19;5077160;28;20050;-73
2023/12/30 09:03:26;;;;;;;13.90;1.97;;;;;;;-145.18;100.00;46965.13;5088582;28;20047;-73
2023/12/30 09:05:52;;;;;;;20.07;2.10;;;;;;;-145.18;100.00;46957.31;5093279;28;20024;-74
2023/12/30 09:08:18;;;;;;;13.57;1.90;;;;;;;-145.18;100.00;46957.31;5083082;28;20039;-74
2023/12/30 09:10:44;;;;;;;9.87;2.70;;;;;;;-145.18;100.00;46955.34;5090744;28;20047;-74
2023/12/30 09:13:10;;;;;;;12.60;2.20;;;;;;;-145.18;100.00;46951.44;5084868;28;20265;-74
2023/12/30 09:15:36;;;;;;;22.23;3.47;;;;;;;-145.18;100.00;46953.41;5084651;28;20043;-73
2023/12/30 09:18:02;;;;;;;16.77;1.87;;;;;;;-145.18;100.00;46945.59;5082171;28;20257;-74
2023/12/30 09:20:27;;;;;;;21.83;2.80;;;;;;;-145.18;100.00;46941.69;5082193;28;20038;-75
2023/12/30 09:22:53;;;;;;;13.50;1.90;;;;;;;-145.18;100.00;46945.59;5084484;28;20119;-73
2023/12/30 09:25:18;;;;;;;21.30;2.97;;;;;;;-145.18;100.00;46937.78;5086623;28;20032;-72
2023/12/30 09:27:47;;;;;;;12.70;1.93;;;;;;;-145.18;100.00;46937.78;5083602;28;20081;-73
2023/12/30 09:30:13;;;;;;;14.07;2.07;;;;;;;-145.18;100.00;46933.88;5089148;28;20071;-73
2023/12/30 09:32:38;;;;;;;20.50;2.13;;;;;;;-145.18;100.00;46931.91;5092716;28;20678;-72
2023/12/30 09:35:05;;;;;;;22.90;3.50;;;;;;;-145.18;100.00;46931.91;5089965;28;20028;-73
2023/12/30 09:37:30;;;;;;;12.57;1.77;;;;;;;-145.18;100.00;46929.97;5082388;28;20123;-73
2023/12/30 09:39:56;;;;;;;19.80;2.30;;;;;;;-145.18;100.00;46928.00;5092410;28;20264;-73
2023/12/30 09:42:22;;;;;;;14.83;2.60;;;;;;;-145.18;100.00;46929.97;5085858;28;20080;-73
2023/12/30 09:44:49;;;;;;;16.53;2.87;;;;;;;-145.18;100.00;46929.97;5090882;28;20024;-73
2023/12/30 09:47:17;;;;;;;15.10;2.40;;;;;;;-145.18;100.00;46929.97;5087199;28;20730;-73
2023/12/30 09:49:44;;;;;;;12.40;2.53;;;;;;;-145.18;100.00;46931.91;5085562;28;20314;-73
2023/12/30 09:52:09;;;;;;;17.63;3.37;;;;;;;-145.18;100.00;46931.91;5087425;28;20300;-73
2023/12/30 09:54:35;;;;;;;18.70;3.50;;;;;;;-145.18;100.00;46931.91;5087545;28;20324;-73
2023/12/30 09:57:02;;;;;;;14.50;3.17;;;;;;;-145.18;100.00;46929.97;5089625;28;20065;-73
2023/12/30 09:59:30;;;;;;;20.07;3.03;;;;;;;-145.18;100.00;46933.88;5087541;28;20256;-73
2023/12/30 10:01:56;;;;;;;16.50;2.67;;;;;;;-145.18;100.00;46933.88;5077752;28;20273;-73
2023/12/30 10:04:22;;;;;;;20.93;2.70;;;;;;;-145.18;100.00;46941.69;5083902;28;20280;-73
2023/12/30 10:06:51;;;;;;;19.00;3.33;;;;;;;-145.18;100.00;46937.78;5090511;28;20313;-73
2023/12/30 10:09:16;;;;;;;21.80;3.00;;;;;;;-145.18;100.00;46939.72;5088829;28;20269;-73
2023/12/30 10:11:44;;;;;;;21.03;3.30;;;;;;;-145.18;100.00;46937.78;5077534;28;20275;-73
2023/12/30 10:14:10;;;;;;;13.73;2.87;;;;;;;-145.18;100.00;46935.81;5080610;28;20036;-73
2023/12/30 10:16:35;;;;;;;19.53;3.20;;;;;;;-145.18;100.00;46937.78;5090205;28;20397;-73
2023/12/30 10:19:01;;;;;;;19.40;3.07;;;;;;;-145.18;100.00;46935.81;5085702;28;20032;-73
2023/12/30 10:21:28;;;;;;;20.30;2.90;;;;;;;-145.18;100.00;46935.81;5076446;28;20047;-73
2023/12/30 10:23:54;;;;;;;20.27;3.17;;;;;;;-145.18;100.00;46935.81;5092114;28;20106;-73
2023/12/30 10:26:21;;;;;;;18.07;3.00;;;;;;;-145.18;100.00;46929.97;5090154;28;20281;-73
2023/12/30 10:28:47;;;;;;;15.70;2.90;;;;;;;-145.18;100.00;46931.91;5091581;28;20364;-73
2023/12/30 10:31:16;;;;;;;22.70;2.83;;;;;;;-145.18;100.00;46937.78;5079217;28;20730;-73
2023/12/30 10:33:42;;;;;;;21.47;4.10;;;;;;;-145.18;100.00;46933.88;5089996;28;20036;-73
2023/12/30 10:36:08;;;;;;;23.33;2.90;;;;;;;-145.18;100.00;46935.81;5089944;28;20702;-73
2023/12/30 10:38:36;;;;;;;23.93;4.43;;;;;;;-145.18;100.00;46939.72;5088889;28;20083;-73
2023/12/30 10:41:01;;;;;;;22.77;3.40;;;;;;;-145.18;100.00;46935.81;5088508;28;20705;-73
2023/12/30 10:43:27;;;;;;;16.40;3.57;;;;;;;-145.18;100.00;46939.72;5087430;28;20308;-73
2023/12/30 10:45:59;;;;;;;22.83;4.83;;;;;;;-145.18;100.00;46933.88;5082914;28;20033;-73
2023/12/30 10:48:33;;;;;;;27.40;4.77;;;;;;;-145.18;100.00;46939.72;5091265;28;20028;-73
2023/12/30 10:51:02;;;;;;;21.97;4.63;;;;;;;-145.18;100.00;46935.81;5084791;28;20288;-74
2023/12/30 10:53:31;;;;;;;21.50;4.83;;;;;;;-145.18;100.00;46943.63;5083868;28;20874;-73
2023/12/30 10:56:03;;;;;;;22.33;6.20;;;;;;;-145.18;100.00;46941.69;5079948;28;20292;-73